sensor_id;sensor_type;location;lat;lon;timestamp;pressure;altitude;pressure_sealevel;temperature;humidity
21728;BME280;11026;50.560;17.852;2023-05-23T00:01:33;99304.47;;;12.27;95.39
21728;BME280;11026;50.560;17.852;2023-05-23T00:04:06;99309.06;;;12.23;95.04
21728;BME280;11026;50.560;17.852;2023-05-23T00:06:33;99311.81;;;12.22;94.04
21728;BME280;11026;50.560;17.852;2023-05-23T00:09:02;99305.78;;;12.02;94.49
21728;BME280;11026;50.560;17.852;2023-05-23T00:11:31;99309.25;;;12.04;95.57
21728;BME280;11026;50.560;17.852;2023-05-23T00:13:58;99301.03;;;12.09;95.43
21728;BME280;11026;50.560;17.852;2023-05-23T00:16:27;99303.75;;;12.07;95.25
21728;BME280;11026;50.560;17.852;2023-05-23T00:18:54;99308.72;;;12.14;94.57
21728;BME280;11026;50.560;17.852;2023-05-23T00:21:23;99292.50;;;12.20;94.14
21728;BME280;11026;50.560;17.852;2023-05-23T00:23:51;99284.44;;;12.21;93.02
21728;BME280;11026;50.560;17.852;2023-05-23T00:26:20;99286.41;;;12.18;93.42
21728;BME280;11026;50.560;17.852;2023-05-23T00:28:49;99294.88;;;12.09;93.75
21728;BME280;11026;50.560;17.852;2023-05-23T00:31:18;99294.88;;;12.09;95.22
21728;BME280;11026;50.560;17.852;2023-05-23T00:33:45;99297.38;;;12.12;95.96
21728;BME280;11026;50.560;17.852;2023-05-23T00:36:13;99287.53;;;12.14;96.48
21728;BME280;11026;50.560;17.852;2023-05-23T00:38:47;99291.00;;;11.81;96.30
21728;BME280;11026;50.560;17.852;2023-05-23T00:41:16;99293.22;;;11.55;98.34
21728;BME280;11026;50.560;17.852;2023-05-23T00:43:44;99292.75;;;11.47;99.48
21728;BME280;11026;50.560;17.852;2023-05-23T00:46:12;99292.06;;;11.26;100.00
21728;BME280;11026;50.560;17.852;2023-05-23T00:48:39;99288.88;;;11.20;100.00
21728;BME280;11026;50.560;17.852;2023-05-23T00:51:07;99292.91;;;11.27;100.00
21728;BME280;11026;50.560;17.852;2023-05-23T00:53:35;99287.84;;;11.40;100.00
21728;BME280;11026;50.560;17.852;2023-05-23T00:56:03;99286.06;;;11.40;100.00
21728;BME280;11026;50.560;17.852;2023-05-23T00:58:32;99285.28;;;11.38;100.00
21728;BME280;11026;50.560;17.852;2023-05-23T01:03:41;99288.78;;;11.39;100.00
21728;BME280;11026;50.560;17.852;2023-05-23T01:06:11;99287.16;;;11.36;100.00
21728;BME280;11026;50.560;17.852;2023-05-23T01:08:40;99288.41;;;11.29;100.00
21728;BME280;11026;50.560;17.852;2023-05-23T01:11:26;99288.41;;;11.29;100.00
21728;BME280;11026;50.560;17.852;2023-05-23T01:14:19;99282.41;;;11.25;100.00
21728;BME280;11026;50.560;17.852;2023-05-23T01:16:56;99281.22;;;11.31;100.00
21728;BME280;11026;50.560;17.852;2023-05-23T01:19:48;99285.13;;;11.24;99.72
21728;BME280;11026;50.560;17.852;2023-05-23T01:22:48;99284.94;;;10.92;100.00
21728;BME280;11026;50.560;17.852;2023-05-23T01:28:10;99278.38;;;11.01;100.00
21728;BME280;11026;50.560;17.852;2023-05-23T01:30:39;99276.09;;;11.11;100.00
21728;BME280;11026;50.560;17.852;2023-05-23T01:33:09;99279.53;;;11.13;100.00
21728;BME280;11026;50.560;17.852;2023-05-23T01:35:40;99281.00;;;11.18;100.00
21728;BME280;11026;50.560;17.852;2023-05-23T01:38:09;99281.72;;;11.22;99.93
21728;BME280;11026;50.560;17.852;2023-05-23T01:40:37;99273.81;;;11.20;99.48
21728;BME280;11026;50.560;17.852;2023-05-23T01:43:05;99281.53;;;11.07;99.91
21728;BME280;11026;50.560;17.852;2023-05-23T01:45:35;99270.63;;;10.96;100.00
21728;BME280;11026;50.560;17.852;2023-05-23T01:48:03;99272.38;;;10.97;100.00
21728;BME280;11026;50.560;17.852;2023-05-23T01:50:32;99265.56;;;10.92;100.00
21728;BME280;11026;50.560;17.852;2023-05-23T01:53:01;99263.06;;;10.89;100.00
21728;BME280;11026;50.560;17.852;2023-05-23T01:55:29;99259.09;;;10.80;100.00
21728;BME280;11026;50.560;17.852;2023-05-23T01:58:05;99274.25;;;10.40;100.00
21728;BME280;11026;50.560;17.852;2023-05-23T02:00:34;99264.25;;;10.28;100.00
21728;BME280;11026;50.560;17.852;2023-05-23T02:03:02;99264.59;;;10.39;100.00
21728;BME280;11026;50.560;17.852;2023-05-23T02:05:30;99263.38;;;10.46;100.00
21728;BME280;11026;50.560;17.852;2023-05-23T02:07:57;99259.03;;;10.45;100.00
21728;BME280;11026;50.560;17.852;2023-05-23T02:10:25;99255.63;;;10.61;100.00
21728;BME280;11026;50.560;17.852;2023-05-23T02:12:52;99260.91;;;10.61;100.00
21728;BME280;11026;50.560;17.852;2023-05-23T02:15:19;99254.53;;;10.65;100.00
21728;BME280;11026;50.560;17.852;2023-05-23T02:17:47;99256.41;;;10.63;100.00
21728;BME280;11026;50.560;17.852;2023-05-23T02:20:14;99251.97;;;10.63;100.00
21728;BME280;11026;50.560;17.852;2023-05-23T02:22:48;99255.78;;;10.57;100.00
21728;BME280;11026;50.560;17.852;2023-05-23T02:25:15;99244.84;;;10.65;100.00
21728;BME280;11026;50.560;17.852;2023-05-23T02:27:42;99253.53;;;10.67;100.00
21728;BME280;11026;50.560;17.852;2023-05-23T02:30:11;99257.13;;;10.66;100.00
21728;BME280;11026;50.560;17.852;2023-05-23T02:32:46;99251.41;;;10.56;100.00
21728;BME280;11026;50.560;17.852;2023-05-23T02:35:13;99254.38;;;10.50;100.00
21728;BME280;11026;50.560;17.852;2023-05-23T02:37:41;99248.16;;;10.51;100.00
21728;BME280;11026;50.560;17.852;2023-05-23T02:40:08;99237.88;;;10.45;100.00
21728;BME280;11026;50.560;17.852;2023-05-23T02:42:36;99239.09;;;10.38;100.00
21728;BME280;11026;50.560;17.852;2023-05-23T02:45:03;99239.88;;;10.40;100.00
21728;BME280;11026;50.560;17.852;2023-05-23T02:47:31;99248.78;;;10.19;100.00
21728;BME280;11026;50.560;17.852;2023-05-23T02:49:58;99242.31;;;9.68;100.00
21728;BME280;11026;50.560;17.852;2023-05-23T02:52:26;99244.41;;;9.80;100.00
21728;BME280;11026;50.560;17.852;2023-05-23T02:54:53;99242.00;;;9.94;100.00
21728;BME280;11026;50.560;17.852;2023-05-23T02:57:22;99229.44;;;9.99;100.00
21728;BME280;11026;50.560;17.852;2023-05-23T02:59:49;99235.84;;;10.13;100.00
21728;BME280;11026;50.560;17.852;2023-05-23T03:02:16;99232.78;;;10.03;100.00
21728;BME280;11026;50.560;17.852;2023-05-23T03:04:46;99242.63;;;9.80;100.00
21728;BME280;11026;50.560;17.852;2023-05-23T03:07:14;99239.56;;;9.71;100.00
21728;BME280;11026;50.560;17.852;2023-05-23T03:09:54;99227.03;;;9.55;100.00
21728;BME280;11026;50.560;17.852;2023-05-23T03:12:26;99234.13;;;9.34;100.00
21728;BME280;11026;50.560;17.852;2023-05-23T03:14:54;99222.03;;;9.29;100.00
21728;BME280;11026;50.560;17.852;2023-05-23T03:17:27;99218.75;;;9.24;100.00
21728;BME280;11026;50.560;17.852;2023-05-23T03:19:55;99218.16;;;9.17;100.00
21728;BME280;11026;50.560;17.852;2023-05-23T03:22:22;99220.94;;;9.34;100.00
21728;BME280;11026;50.560;17.852;2023-05-23T03:24:51;99216.59;;;9.52;100.00
21728;BME280;11026;50.560;17.852;2023-05-23T03:27:19;99210.22;;;9.38;100.00
21728;BME280;11026;50.560;17.852;2023-05-23T03:29:46;99218.63;;;9.27;100.00
21728;BME280;11026;50.560;17.852;2023-05-23T03:32:14;99219.25;;;9.52;100.00
21728;BME280;11026;50.560;17.852;2023-05-23T03:34:48;99210.53;;;9.69;100.00
21728;BME280;11026;50.560;17.852;2023-05-23T03:37:15;99211.63;;;9.84;100.00
21728;BME280;11026;50.560;17.852;2023-05-23T03:39:44;99210.56;;;9.88;100.00
21728;BME280;11026;50.560;17.852;2023-05-23T03:42:11;99212.63;;;10.00;100.00
21728;BME280;11026;50.560;17.852;2023-05-23T03:44:41;99222.78;;;10.09;100.00
21728;BME280;11026;50.560;17.852;2023-05-23T03:47:08;99217.00;;;9.82;100.00
21728;BME280;11026;50.560;17.852;2023-05-23T03:49:37;99215.84;;;9.69;100.00
21728;BME280;11026;50.560;17.852;2023-05-23T03:52:06;99210.06;;;9.80;100.00
21728;BME280;11026;50.560;17.852;2023-05-23T03:54:34;99202.88;;;10.02;100.00
21728;BME280;11026;50.560;17.852;2023-05-23T03:57:02;99201.00;;;10.23;100.00
21728;BME280;11026;50.560;17.852;2023-05-23T03:59:29;99205.34;;;10.43;100.00
21728;BME280;11026;50.560;17.852;2023-05-23T04:01:57;99203.97;;;10.53;100.00
21728;BME280;11026;50.560;17.852;2023-05-23T04:04:28;99203.63;;;10.78;100.00
21728;BME280;11026;50.560;17.852;2023-05-23T04:06:57;99198.56;;;10.91;100.00
21728;BME280;11026;50.560;17.852;2023-05-23T04:09:25;99201.59;;;11.01;100.00
21728;BME280;11026;50.560;17.852;2023-05-23T04:11:52;99193.88;;;11.14;100.00
21728;BME280;11026;50.560;17.852;2023-05-23T04:14:22;99188.09;;;11.23;100.00
21728;BME280;11026;50.560;17.852;2023-05-23T04:16:50;99196.44;;;11.32;100.00
21728;BME280;11026;50.560;17.852;2023-05-23T04:19:18;99201.16;;;11.43;100.00
21728;BME280;11026;50.560;17.852;2023-05-23T04:21:46;99188.28;;;11.53;100.00
21728;BME280;11026;50.560;17.852;2023-05-23T04:24:20;99183.34;;;11.63;100.00
21728;BME280;11026;50.560;17.852;2023-05-23T04:26:47;99186.88;;;11.79;100.00
21728;BME280;11026;50.560;17.852;2023-05-23T04:29:15;99183.53;;;11.93;100.00
21728;BME280;11026;50.560;17.852;2023-05-23T04:31:42;99190.00;;;12.03;100.00
21728;BME280;11026;50.560;17.852;2023-05-23T04:34:12;99181.13;;;12.20;99.35
21728;BME280;11026;50.560;17.852;2023-05-23T04:36:40;99180.44;;;12.32;99.39
21728;BME280;11026;50.560;17.852;2023-05-23T04:39:10;99186.75;;;12.45;99.33
21728;BME280;11026;50.560;17.852;2023-05-23T04:41:38;99182.25;;;12.62;98.65
21728;BME280;11026;50.560;17.852;2023-05-23T04:44:05;99177.97;;;12.75;97.31
21728;BME280;11026;50.560;17.852;2023-05-23T04:46:33;99174.00;;;12.82;96.55
21728;BME280;11026;50.560;17.852;2023-05-23T04:49:01;99176.69;;;12.96;95.78
21728;BME280;11026;50.560;17.852;2023-05-23T04:51:30;99179.56;;;13.08;93.79
21728;BME280;11026;50.560;17.852;2023-05-23T04:53:57;99178.59;;;13.24;92.28
21728;BME280;11026;50.560;17.852;2023-05-23T04:56:25;99179.94;;;13.32;90.97
21728;BME280;11026;50.560;17.852;2023-05-23T04:58:55;99182.00;;;13.41;91.34
21728;BME280;11026;50.560;17.852;2023-05-23T05:01:22;99171.03;;;13.47;91.52
21728;BME280;11026;50.560;17.852;2023-05-23T05:03:52;99173.00;;;13.58;91.27
21728;BME280;11026;50.560;17.852;2023-05-23T05:06:20;99180.97;;;13.72;90.44
21728;BME280;11026;50.560;17.852;2023-05-23T05:08:47;99178.50;;;13.83;88.68
21728;BME280;11026;50.560;17.852;2023-05-23T05:11:17;99181.53;;;13.91;88.16
21728;BME280;11026;50.560;17.852;2023-05-23T05:13:45;99179.25;;;13.99;88.53
21728;BME280;11026;50.560;17.852;2023-05-23T05:16:12;99169.50;;;14.13;87.29
21728;BME280;11026;50.560;17.852;2023-05-23T05:18:40;99169.03;;;14.20;87.05
21728;BME280;11026;50.560;17.852;2023-05-23T05:21:08;99168.44;;;14.30;86.96
21728;BME280;11026;50.560;17.852;2023-05-23T05:23:39;99174.94;;;14.52;85.07
21728;BME280;11026;50.560;17.852;2023-05-23T05:26:07;99163.56;;;14.50;83.05
21728;BME280;11026;50.560;17.852;2023-05-23T05:28:34;99162.19;;;14.58;82.37
21728;BME280;11026;50.560;17.852;2023-05-23T05:31:02;99161.44;;;14.56;82.37
21728;BME280;11026;50.560;17.852;2023-05-23T05:33:31;99160.81;;;14.65;81.23
21728;BME280;11026;50.560;17.852;2023-05-23T05:36:03;99168.06;;;14.63;82.64
21728;BME280;11026;50.560;17.852;2023-05-23T05:38:32;99156.06;;;14.83;82.02
21728;BME280;11026;50.560;17.852;2023-05-23T05:41:06;99151.91;;;14.79;82.16
21728;BME280;11026;50.560;17.852;2023-05-23T05:43:35;99152.06;;;15.03;80.75
21728;BME280;11026;50.560;17.852;2023-05-23T05:46:02;99156.75;;;15.12;78.21
21728;BME280;11026;50.560;17.852;2023-05-23T05:48:30;99157.06;;;15.07;76.83
21728;BME280;11026;50.560;17.852;2023-05-23T05:50:59;99152.81;;;15.05;77.66
21728;BME280;11026;50.560;17.852;2023-05-23T05:53:30;99157.00;;;15.21;77.77
21728;BME280;11026;50.560;17.852;2023-05-23T05:55:59;99158.28;;;15.29;76.43
21728;BME280;11026;50.560;17.852;2023-05-23T05:58:26;99157.94;;;15.33;76.01
21728;BME280;11026;50.560;17.852;2023-05-23T06:00:56;99149.31;;;15.42;76.38
21728;BME280;11026;50.560;17.852;2023-05-23T06:03:26;99140.88;;;15.48;75.18
21728;BME280;11026;50.560;17.852;2023-05-23T06:05:54;99143.88;;;15.57;75.41
21728;BME280;11026;50.560;17.852;2023-05-23T06:08:30;99147.81;;;15.77;76.10
21728;BME280;11026;50.560;17.852;2023-05-23T06:10:58;99151.00;;;15.82;74.64
21728;BME280;11026;50.560;17.852;2023-05-23T06:13:28;99155.31;;;15.95;76.12
21728;BME280;11026;50.560;17.852;2023-05-23T06:15:56;99152.97;;;16.04;74.12
21728;BME280;11026;50.560;17.852;2023-05-23T06:18:24;99137.03;;;16.15;74.02
21728;BME280;11026;50.560;17.852;2023-05-23T06:20:52;99141.84;;;16.10;73.14
21728;BME280;11026;50.560;17.852;2023-05-23T06:23:21;99146.84;;;16.14;74.21
21728;BME280;11026;50.560;17.852;2023-05-23T06:25:51;99153.38;;;16.34;74.16
21728;BME280;11026;50.560;17.852;2023-05-23T06:28:19;99149.38;;;16.53;73.50
21728;BME280;11026;50.560;17.852;2023-05-23T06:30:47;99144.44;;;16.70;73.01
21728;BME280;11026;50.560;17.852;2023-05-23T06:33:15;99146.41;;;16.92;71.95
21728;BME280;11026;50.560;17.852;2023-05-23T06:35:52;99144.72;;;17.14;72.61
21728;BME280;11026;50.560;17.852;2023-05-23T06:38:21;99140.63;;;17.21;71.61
21728;BME280;11026;50.560;17.852;2023-05-23T06:40:48;99132.97;;;17.16;69.58
21728;BME280;11026;50.560;17.852;2023-05-23T06:43:17;99141.50;;;17.33;70.77
21728;BME280;11026;50.560;17.852;2023-05-23T06:45:48;99134.09;;;17.48;70.94
21728;BME280;11026;50.560;17.852;2023-05-23T06:48:19;99135.06;;;17.69;69.82
21728;BME280;11026;50.560;17.852;2023-05-23T06:50:48;99140.19;;;17.72;68.05
21728;BME280;11026;50.560;17.852;2023-05-23T06:53:16;99130.22;;;17.85;69.29
21728;BME280;11026;50.560;17.852;2023-05-23T06:55:45;99128.97;;;18.01;67.20
21728;BME280;11026;50.560;17.852;2023-05-23T06:58:12;99125.00;;;17.95;66.46
21728;BME280;11026;50.560;17.852;2023-05-23T07:00:40;99121.78;;;18.12;68.05
21728;BME280;11026;50.560;17.852;2023-05-23T07:03:09;99119.22;;;18.22;65.96
21728;BME280;11026;50.560;17.852;2023-05-23T07:05:38;99119.66;;;18.38;65.13
21728;BME280;11026;50.560;17.852;2023-05-23T07:08:09;99107.91;;;18.51;65.62
21728;BME280;11026;50.560;17.852;2023-05-23T07:10:37;99104.66;;;18.68;66.31
21728;BME280;11026;50.560;17.852;2023-05-23T07:13:09;99105.09;;;18.84;65.38
21728;BME280;11026;50.560;17.852;2023-05-23T07:15:36;99104.28;;;19.05;62.91
21728;BME280;11026;50.560;17.852;2023-05-23T07:18:04;99094.19;;;19.18;65.51
21728;BME280;11026;50.560;17.852;2023-05-23T07:20:39;99097.09;;;19.36;62.53
21728;BME280;11026;50.560;17.852;2023-05-23T07:23:07;99094.38;;;19.57;64.72
21728;BME280;11026;50.560;17.852;2023-05-23T07:25:37;99086.78;;;19.62;63.21
21728;BME280;11026;50.560;17.852;2023-05-23T07:28:19;99081.50;;;19.81;63.88
21728;BME280;11026;50.560;17.852;2023-05-23T07:30:47;99084.50;;;19.98;61.59
21728;BME280;11026;50.560;17.852;2023-05-23T07:33:14;99078.31;;;20.17;61.20
21728;BME280;11026;50.560;17.852;2023-05-23T07:35:44;99085.22;;;20.19;60.94
21728;BME280;11026;50.560;17.852;2023-05-23T07:38:12;99073.94;;;20.16;58.95
21728;BME280;11026;50.560;17.852;2023-05-23T07:40:41;99075.34;;;20.29;58.47
21728;BME280;11026;50.560;17.852;2023-05-23T07:43:08;99071.81;;;20.38;61.80
21728;BME280;11026;50.560;17.852;2023-05-23T07:45:36;99078.22;;;20.57;62.64
21728;BME280;11026;50.560;17.852;2023-05-23T07:48:05;99071.69;;;20.69;60.80
21728;BME280;11026;50.560;17.852;2023-05-23T07:50:32;99071.41;;;20.82;61.06
21728;BME280;11026;50.560;17.852;2023-05-23T07:53:00;99071.69;;;20.88;60.14
21728;BME280;11026;50.560;17.852;2023-05-23T07:55:29;99069.84;;;20.99;60.10
21728;BME280;11026;50.560;17.852;2023-05-23T07:58:04;99061.41;;;21.21;58.92
21728;BME280;11026;50.560;17.852;2023-05-23T08:00:33;99060.53;;;21.30;57.82
21728;BME280;11026;50.560;17.852;2023-05-23T08:03:00;99058.69;;;21.31;58.57
21728;BME280;11026;50.560;17.852;2023-05-23T08:05:28;99066.13;;;21.56;60.28
21728;BME280;11026;50.560;17.852;2023-05-23T08:07:56;99069.25;;;21.52;57.47
21728;BME280;11026;50.560;17.852;2023-05-23T08:10:23;99057.69;;;21.69;58.69
21728;BME280;11026;50.560;17.852;2023-05-23T08:12:54;99066.66;;;21.88;56.79
21728;BME280;11026;50.560;17.852;2023-05-23T08:15:21;99060.16;;;22.08;56.78
21728;BME280;11026;50.560;17.852;2023-05-23T08:17:50;99056.91;;;21.87;54.36
21728;BME280;11026;50.560;17.852;2023-05-23T08:20:24;99066.56;;;21.52;55.07
21728;BME280;11026;50.560;17.852;2023-05-23T08:22:57;99070.94;;;21.53;54.88
21728;BME280;11026;50.560;17.852;2023-05-23T08:25:28;99079.97;;;21.61;54.24
21728;BME280;11026;50.560;17.852;2023-05-23T08:27:59;99070.75;;;21.92;56.25
21728;BME280;11026;50.560;17.852;2023-05-23T08:30:28;99076.38;;;22.26;54.07
21728;BME280;11026;50.560;17.852;2023-05-23T08:32:56;99064.56;;;22.45;52.08
21728;BME280;11026;50.560;17.852;2023-05-23T08:35:24;99071.59;;;22.38;53.52
21728;BME280;11026;50.560;17.852;2023-05-23T08:37:51;99063.59;;;22.46;51.32
21728;BME280;11026;50.560;17.852;2023-05-23T08:40:20;99068.22;;;22.18;51.97
21728;BME280;11026;50.560;17.852;2023-05-23T08:42:49;99071.53;;;22.47;52.30
21728;BME280;11026;50.560;17.852;2023-05-23T08:45:20;99062.91;;;22.88;53.25
21728;BME280;11026;50.560;17.852;2023-05-23T08:47:50;99064.34;;;23.18;52.20
21728;BME280;11026;50.560;17.852;2023-05-23T08:50:18;99062.59;;;23.35;49.21
21728;BME280;11026;50.560;17.852;2023-05-23T08:52:56;99060.91;;;23.68;51.15
21728;BME280;11026;50.560;17.852;2023-05-23T08:55:26;99055.25;;;23.95;52.01
21728;BME280;11026;50.560;17.852;2023-05-23T08:57:54;99058.66;;;23.97;50.20
21728;BME280;11026;50.560;17.852;2023-05-23T09:00:25;99056.69;;;24.24;49.24
21728;BME280;11026;50.560;17.852;2023-05-23T09:02:52;99056.91;;;24.47;48.19
21728;BME280;11026;50.560;17.852;2023-05-23T09:05:25;99053.19;;;24.81;49.78
21728;BME280;11026;50.560;17.852;2023-05-23T09:07:53;99044.53;;;25.01;48.44
21728;BME280;11026;50.560;17.852;2023-05-23T09:10:21;99052.84;;;24.92;48.04
21728;BME280;11026;50.560;17.852;2023-05-23T09:12:49;99042.66;;;25.35;48.02
21728;BME280;11026;50.560;17.852;2023-05-23T09:15:17;99037.66;;;25.63;46.76
21728;BME280;11026;50.560;17.852;2023-05-23T09:17:44;99039.44;;;25.87;46.61
21728;BME280;11026;50.560;17.852;2023-05-23T09:20:15;99038.94;;;26.14;46.04
21728;BME280;11026;50.560;17.852;2023-05-23T09:22:47;99037.69;;;26.48;44.69
21728;BME280;11026;50.560;17.852;2023-05-23T09:25:15;99048.94;;;26.14;42.91
21728;BME280;11026;50.560;17.852;2023-05-23T09:27:43;99044.00;;;26.17;44.97
21728;BME280;11026;50.560;17.852;2023-05-23T09:30:14;99042.03;;;26.03;41.82
21728;BME280;11026;50.560;17.852;2023-05-23T09:32:41;99046.06;;;26.07;42.92
21728;BME280;11026;50.560;17.852;2023-05-23T09:35:10;99048.69;;;25.92;40.33
21728;BME280;11026;50.560;17.852;2023-05-23T09:37:44;99037.06;;;25.75;40.39
21728;BME280;11026;50.560;17.852;2023-05-23T09:40:14;99050.53;;;25.52;40.97
21728;BME280;11026;50.560;17.852;2023-05-23T09:42:46;99049.59;;;25.29;41.79
21728;BME280;11026;50.560;17.852;2023-05-23T09:45:17;99052.41;;;25.52;43.18
21728;BME280;11026;50.560;17.852;2023-05-23T09:47:51;99064.69;;;25.79;42.28
21728;BME280;11026;50.560;17.852;2023-05-23T09:50:20;99054.06;;;26.00;40.75
21728;BME280;11026;50.560;17.852;2023-05-23T09:52:48;99052.59;;;26.21;40.34
21728;BME280;11026;50.560;17.852;2023-05-23T09:55:18;99064.31;;;26.21;40.16
21728;BME280;11026;50.560;17.852;2023-05-23T09:57:52;99081.00;;;26.02;40.90
21728;BME280;11026;50.560;17.852;2023-05-23T10:00:21;99087.34;;;25.14;44.79
21728;BME280;11026;50.560;17.852;2023-05-23T10:03:10;99099.19;;;24.05;48.80
21728;BME280;11026;50.560;17.852;2023-05-23T10:05:49;99113.88;;;23.09;51.43
21728;BME280;11026;50.560;17.852;2023-05-23T10:08:33;99129.06;;;21.26;54.29
21728;BME280;11026;50.560;17.852;2023-05-23T10:13:45;99174.66;;;18.86;68.54
21728;BME280;11026;50.560;17.852;2023-05-23T10:16:52;99152.06;;;18.56;74.07
21728;BME280;11026;50.560;17.852;2023-05-23T10:19:29;99167.19;;;17.91;78.31
21728;BME280;11026;50.560;17.852;2023-05-23T10:22:02;99170.56;;;17.71;86.44
21728;BME280;11026;50.560;17.852;2023-05-23T10:24:33;99156.84;;;17.64;91.22
21728;BME280;11026;50.560;17.852;2023-05-23T10:27:02;99160.09;;;17.34;99.67
21728;BME280;11026;50.560;17.852;2023-05-23T10:29:35;99168.00;;;16.89;100.00
21728;BME280;11026;50.560;17.852;2023-05-23T10:32:06;99164.03;;;16.71;100.00
21728;BME280;11026;50.560;17.852;2023-05-23T10:34:51;99159.53;;;16.71;100.00
21728;BME280;11026;50.560;17.852;2023-05-23T10:40:23;99167.84;;;16.80;100.00
21728;BME280;11026;50.560;17.852;2023-05-23T10:43:04;99164.19;;;16.81;100.00
21728;BME280;11026;50.560;17.852;2023-05-23T10:45:39;99168.38;;;16.96;100.00
21728;BME280;11026;50.560;17.852;2023-05-23T10:48:23;99172.94;;;17.18;100.00
21728;BME280;11026;50.560;17.852;2023-05-23T10:51:09;99176.34;;;17.20;100.00
21728;BME280;11026;50.560;17.852;2023-05-23T10:53:42;99166.03;;;17.38;100.00
21728;BME280;11026;50.560;17.852;2023-05-23T10:56:18;99164.75;;;17.55;100.00
21728;BME280;11026;50.560;17.852;2023-05-23T10:58:53;99159.13;;;17.69;100.00
21728;BME280;11026;50.560;17.852;2023-05-23T11:01:23;99169.63;;;17.83;100.00
21728;BME280;11026;50.560;17.852;2023-05-23T11:03:53;99167.44;;;17.88;100.00
21728;BME280;11026;50.560;17.852;2023-05-23T11:06:37;99169.25;;;17.77;100.00
21728;BME280;11026;50.560;17.852;2023-05-23T11:09:16;99177.84;;;17.58;100.00
21728;BME280;11026;50.560;17.852;2023-05-23T11:11:51;99178.72;;;17.47;100.00
21728;BME280;11026;50.560;17.852;2023-05-23T11:14:21;99172.50;;;17.69;100.00
21728;BME280;11026;50.560;17.852;2023-05-23T11:17:15;99181.97;;;17.39;100.00
21728;BME280;11026;50.560;17.852;2023-05-23T11:20:03;99182.00;;;17.51;100.00
21728;BME280;11026;50.560;17.852;2023-05-23T11:22:34;99172.63;;;17.56;100.00
21728;BME280;11026;50.560;17.852;2023-05-23T11:25:09;99171.47;;;17.83;100.00
21728;BME280;11026;50.560;17.852;2023-05-23T11:27:39;99166.50;;;17.78;100.00
21728;BME280;11026;50.560;17.852;2023-05-23T11:30:15;99155.75;;;17.67;100.00
21728;BME280;11026;50.560;17.852;2023-05-23T11:32:51;99159.88;;;17.71;100.00
21728;BME280;11026;50.560;17.852;2023-05-23T11:35:23;99158.94;;;17.83;100.00
21728;BME280;11026;50.560;17.852;2023-05-23T11:37:51;99153.56;;;18.06;100.00
21728;BME280;11026;50.560;17.852;2023-05-23T11:40:36;99150.13;;;18.26;100.00
21728;BME280;11026;50.560;17.852;2023-05-23T11:43:05;99156.91;;;18.41;100.00
21728;BME280;11026;50.560;17.852;2023-05-23T11:45:34;99156.97;;;18.51;100.00
21728;BME280;11026;50.560;17.852;2023-05-23T11:48:08;99153.66;;;18.59;100.00
21728;BME280;11026;50.560;17.852;2023-05-23T11:50:45;99154.38;;;18.61;100.00
21728;BME280;11026;50.560;17.852;2023-05-23T11:53:14;99153.91;;;18.56;100.00
21728;BME280;11026;50.560;17.852;2023-05-23T11:55:53;99149.25;;;18.69;100.00
21728;BME280;11026;50.560;17.852;2023-05-23T11:58:21;99157.97;;;18.82;100.00
21728;BME280;11026;50.560;17.852;2023-05-23T12:01:13;99160.28;;;18.87;100.00
21728;BME280;11026;50.560;17.852;2023-05-23T12:03:45;99156.28;;;18.81;100.00
21728;BME280;11026;50.560;17.852;2023-05-23T12:06:22;99150.72;;;18.73;100.00
21728;BME280;11026;50.560;17.852;2023-05-23T12:08:51;99145.03;;;18.87;100.00
21728;BME280;11026;50.560;17.852;2023-05-23T12:11:19;99145.97;;;18.98;100.00
21728;BME280;11026;50.560;17.852;2023-05-23T12:13:48;99133.03;;;19.03;100.00
21728;BME280;11026;50.560;17.852;2023-05-23T12:16:17;99127.56;;;19.35;100.00
21728;BME280;11026;50.560;17.852;2023-05-23T12:18:45;99117.63;;;19.77;100.00
21728;BME280;11026;50.560;17.852;2023-05-23T12:21:15;99104.44;;;20.14;100.00
21728;BME280;11026;50.560;17.852;2023-05-23T12:23:43;99099.56;;;20.49;99.08
21728;BME280;11026;50.560;17.852;2023-05-23T12:26:11;99098.59;;;20.79;94.57
21728;BME280;11026;50.560;17.852;2023-05-23T12:28:48;99087.38;;;21.03;90.55
21728;BME280;11026;50.560;17.852;2023-05-23T12:31:19;99074.16;;;21.19;90.96
21728;BME280;11026;50.560;17.852;2023-05-23T12:33:48;99077.22;;;21.44;93.07
21728;BME280;11026;50.560;17.852;2023-05-23T12:36:24;99074.25;;;21.74;91.54
21728;BME280;11026;50.560;17.852;2023-05-23T12:38:53;99073.81;;;21.97;87.62
21728;BME280;11026;50.560;17.852;2023-05-23T12:41:23;99073.13;;;22.22;84.74
21728;BME280;11026;50.560;17.852;2023-05-23T12:43:55;99070.38;;;22.50;83.21
21728;BME280;11026;50.560;17.852;2023-05-23T12:46:24;99064.31;;;22.92;83.12
21728;BME280;11026;50.560;17.852;2023-05-23T12:48:53;99061.25;;;23.39;80.14
21728;BME280;11026;50.560;17.852;2023-05-23T12:51:21;99063.78;;;23.66;77.21
21728;BME280;11026;50.560;17.852;2023-05-23T12:53:50;99074.63;;;23.83;73.53
21728;BME280;11026;50.560;17.852;2023-05-23T12:56:18;99066.19;;;23.77;70.34
21728;BME280;11026;50.560;17.852;2023-05-23T12:58:47;99071.41;;;23.45;66.56
21728;BME280;11026;50.560;17.852;2023-05-23T13:01:14;99080.84;;;23.15;66.27
21728;BME280;11026;50.560;17.852;2023-05-23T13:03:43;99085.09;;;23.17;67.83
21728;BME280;11026;50.560;17.852;2023-05-23T13:06:12;99070.31;;;23.64;67.07
21728;BME280;11026;50.560;17.852;2023-05-23T13:08:41;99066.59;;;24.07;65.84
21728;BME280;11026;50.560;17.852;2023-05-23T13:11:09;99066.63;;;24.15;61.25
21728;BME280;11026;50.560;17.852;2023-05-23T13:13:39;99064.69;;;24.50;58.78
21728;BME280;11026;50.560;17.852;2023-05-23T13:16:06;99071.53;;;24.12;55.29